Time;durP1;ratioP1;P1;durP2;ratioP2;P2;SDS_P1;SDS_P2;PMS_P1;PMS_P2;Temp;Humidity;BMP_temperature;BMP_pressure;BME280_temperature;BME280_humidity;BME280_pressure;Samples;Min_cycle;Max_cycle;Signal;HPM_P1;HPM_P2
2022/07/08 00:00:12;;;;;;;;;;;20.60;53.20;;;;;;5149885;27;19923;-51
2022/07/08 00:02:38;;;;;;;;;;;20.20;52.60;;;;;;5164089;27;19930;-52
2022/07/08 00:05:04;;;;;;;;;;;19.90;52.10;;;;;;5164486;27;19948;-47
2022/07/08 00:07:30;;;;;;;;;;;19.80;52.00;;;;;;5170297;27;20366;-46
2022/07/08 00:09:55;;;;;;;;;;;20.00;52.80;;;;;;5147110;27;19949;-47
2022/07/08 00:12:24;;;;;;;;;;;20.80;54.40;;;;;;5164960;27;19964;-48
2022/07/08 00:14:50;;;;;;;;;;;21.50;53.30;;;;;;5170146;27;20029;-48
2022/07/08 00:17:16;;;;;;;;;;;20.50;52.30;;;;;;5143589;27;19966;-57
2022/07/08 00:19:41;;;;;;;;;;;20.00;52.20;;;;;;5168484;27;19923;-46
2022/07/08 00:22:07;;;;;;;;;;;19.80;51.70;;;;;;5144446;27;20299;-48
2022/07/08 00:24:33;;;;;;;;;;;20.20;53.10;;;;;;5164117;27;20402;-49
2022/07/08 00:26:59;;;;;;;;;;;21.10;53.10;;;;;;5169716;27;19923;-48
2022/07/08 00:29:25;;;;;;;;;;;21.60;50.70;;;;;;5164245;27;20406;-48
2022/07/08 00:31:51;;;;;;;;;;;20.30;51.30;;;;;;5164500;27;20204;-47
2022/07/08 00:34:16;;;;;;;;;;;20.20;50.10;;;;;;5149277;27;19932;-46
2022/07/08 00:36:42;;;;;;;;;;;19.90;50.20;;;;;;5143922;27;19922;-45
2022/07/08 00:39:08;;;;;;;;;;;19.90;49.70;;;;;;5167390;27;20374;-57
2022/07/08 00:41:34;;;;;;;;;;;19.60;49.70;;;;;;5165276;27;20021;-47
2022/07/08 00:44:00;;;;;;;;;;;20.50;51.10;;;;;;5163893;27;19927;-51
2022/07/08 00:46:26;;;;;;;;;;;21.30;50.10;;;;;;5169566;27;20350;-50
2022/07/08 00:48:52;;;;;;;;;;;20.90;49.30;;;;;;5164348;27;19929;-49
2022/07/08 00:51:17;;;;;;;;;;;20.30;49.30;;;;;;5163940;27;20267;-46
2022/07/08 00:53:51;;;;;;;;;;;19.70;49.70;;;;;;5169125;27;19923;-47
2022/07/08 00:56:16;;;;;;;;;;;19.80;49.20;;;;;;5162289;27;19926;-47
2022/07/08 00:58:42;;;;;;;;;;;20.40;50.60;;;;;;5163455;27;19948;-49
2022/07/08 01:01:08;;;;;;;;;;;21.30;49.80;;;;;;5168861;27;19923;-49
2022/07/08 01:03:34;;;;;;;;;;;21.30;48.70;;;;;;5163679;27;19934;-47
2022/07/08 01:06:00;;;;;;;;;;;20.30;49.50;;;;;;5149996;27;19923;-46
2022/07/08 01:08:25;;;;;;;;;;;19.90;49.50;;;;;;5163718;27;19923;-49
2022/07/08 01:10:51;;;;;;;;;;;19.80;49.20;;;;;;5163795;27;19930;-48
2022/07/08 01:13:17;;;;;;;;;;;20.50;50.70;;;;;;5167826;27;19926;-50
2022/07/08 01:15:43;;;;;;;;;;;21.40;49.10;;;;;;5143073;27;20344;-59
2022/07/08 01:18:09;;;;;;;;;;;21.50;48.30;;;;;;5163287;27;20437;-60
2022/07/08 01:20:38;;;;;;;;;;;21.80;47.10;;;;;;5168822;27;19931;-46
2022/07/08 01:23:04;;;;;;;;;;;20.80;47.50;;;;;;5163208;27;19933;-45
2022/07/08 01:25:30;;;;;;;;;;;21.00;48.20;;;;;;5169147;27;19923;-47
2022/07/08 01:27:56;;;;;;;;;;;21.80;46.30;;;;;;5164340;27;20308;-56
2022/07/08 01:30:21;;;;;;;;;;;21.50;46.40;;;;;;5163352;27;20009;-55
2022/07/08 01:32:47;;;;;;;;;;;21.70;45.00;;;;;;5166961;27;19923;-56
2022/07/08 01:35:13;;;;;;;;;;;21.80;44.50;;;;;;5162853;27;19922;-57
2022/07/08 01:37:39;;;;;;;;;;;21.90;44.00;;;;;;5163031;27;20338;-56
2022/07/08 01:40:05;;;;;;;;;;;22.10;43.50;;;;;;5167938;27;19923;-54
2022/07/08 01:42:31;;;;;;;;;;;22.20;43.10;;;;;;5143735;27;20774;-57
2022/07/08 01:44:56;;;;;;;;;;;22.10;43.10;;;;;;5167865;27;19975;-52
2022/07/08 01:47:22;;;;;;;;;;;22.20;42.90;;;;;;5164311;27;20309;-57
2022/07/08 01:49:48;;;;;;;;;;;22.20;42.60;;;;;;5161902;27;19938;-53
2022/07/08 01:52:14;;;;;;;;;;;22.10;42.50;;;;;;5167254;27;19976;-53
2022/07/08 01:54:39;;;;;;;;;;;22.10;42.70;;;;;;5162567;27;19923;-56
2022/07/08 01:57:14;;;;;;;;;;;22.20;42.50;;;;;;5162784;27;20021;-55
2022/07/08 01:59:41;;;;;;;;;;;22.30;42.20;;;;;;5168059;27;19923;-54
2022/07/08 02:02:06;;;;;;;;;;;22.30;42.00;;;;;;5162980;27;20324;-56
2022/07/08 02:04:32;;;;;;;;;;;22.30;42.10;;;;;;5162746;27;20357;-57
2022/07/08 02:06:58;;;;;;;;;;;22.30;41.70;;;;;;5168290;27;20390;-57
2022/07/08 02:09:23;;;;;;;;;;;21.30;43.90;;;;;;5161066;27;19932;-57
2022/07/08 02:14:34;;;;;;;;;;;21.30;44.30;;;;;;5165925;27;19929;-55
2022/07/08 02:17:00;;;;;;;;;;;21.50;44.10;;;;;;5162540;27;19927;-56
2022/07/08 02:19:25;;;;;;;;;;;21.40;44.20;;;;;;5168086;27;19970;-57
2022/07/08 02:21:51;;;;;;;;;;;21.50;44.00;;;;;;5162619;27;20281;-57
2022/07/08 02:24:17;;;;;;;;;;;21.50;43.80;;;;;;5162435;27;19922;-57
2022/07/08 02:26:43;;;;;;;;;;;21.50;43.80;;;;;;5166455;27;19923;-57
2022/07/08 02:29:09;;;;;;;;;;;21.70;43.50;;;;;;5142835;27;19934;-56
2022/07/08 02:31:34;;;;;;;;;;;21.60;43.70;;;;;;5162226;27;19935;-56
2022/07/08 02:34:00;;;;;;;;;;;21.60;43.90;;;;;;5167910;27;19926;-58
2022/07/08 02:36:26;;;;;;;;;;;21.50;44.10;;;;;;5162324;27;20373;-58
2022/07/08 02:38:52;;;;;;;;;;;21.40;44.50;;;;;;5167886;27;19938;-59
2022/07/08 02:41:18;;;;;;;;;;;21.40;44.50;;;;;;5162086;27;20009;-58
2022/07/08 02:43:44;;;;;;;;;;;21.40;44.40;;;;;;5162000;27;19974;-56
2022/07/08 02:46:09;;;;;;;;;;;21.40;44.40;;;;;;5165979;27;19922;-56
2022/07/08 02:48:35;;;;;;;;;;;21.40;44.30;;;;;;5142161;27;19931;-58
2022/07/08 02:51:01;;;;;;;;;;;21.50;44.20;;;;;;5161102;27;19934;-58
2022/07/08 02:53:27;;;;;;;;;;;21.50;44.20;;;;;;5167286;27;20029;-58
2022/07/08 02:55:53;;;;;;;;;;;21.50;44.10;;;;;;5161783;27;19934;-59
2022/07/08 02:58:19;;;;;;;;;;;21.40;44.40;;;;;;5167582;27;19922;-59
2022/07/08 03:00:44;;;;;;;;;;;21.40;44.40;;;;;;5161904;27;19923;-58
2022/07/08 03:03:10;;;;;;;;;;;21.40;44.60;;;;;;5160942;27;19978;-57
2022/07/08 03:05:36;;;;;;;;;;;21.40;44.40;;;;;;5147648;27;20386;-59
2022/07/08 03:08:02;;;;;;;;;;;21.50;44.30;;;;;;5161771;27;19972;-57
2022/07/08 03:10:28;;;;;;;;;;;21.40;44.30;;;;;;5143235;27;19934;-57
2022/07/08 03:12:54;;;;;;;;;;;21.50;44.20;;;;;;5167232;27;19946;-59
2022/07/08 03:15:19;;;;;;;;;;;21.50;44.00;;;;;;5161971;27;19930;-59
2022/07/08 03:17:45;;;;;;;;;;;21.50;44.00;;;;;;5167159;27;19978;-59
2022/07/08 03:20:11;;;;;;;;;;;21.40;44.10;;;;;;5161835;27;20018;-57
2022/07/08 03:22:37;;;;;;;;;;;21.40;44.30;;;;;;5159690;27;19927;-58
2022/07/08 03:25:03;;;;;;;;;;;21.40;44.30;;;;;;5166523;27;20859;-59
2022/07/08 03:27:29;;;;;;;;;;;21.40;44.30;;;;;;5161412;27;19976;-58
2022/07/08 03:29:54;;;;;;;;;;;21.40;44.20;;;;;;5161670;27;20738;-59
2022/07/08 03:32:20;;;;;;;;;;;21.40;44.10;;;;;;5167062;27;19929;-59
2022/07/08 03:34:46;;;;;;;;;;;21.40;44.10;;;;;;5161554;27;20373;-58
2022/07/08 03:37:12;;;;;;;;;;;21.50;43.80;;;;;;5166102;27;19922;-59
2022/07/08 03:39:37;;;;;;;;;;;21.50;43.60;;;;;;5161719;27;20369;-59
2022/07/08 03:42:03;;;;;;;;;;;21.30;44.00;;;;;;5160082;27;19927;-59
2022/07/08 03:44:29;;;;;;;;;;;20.80;43.80;;;;;;5166205;27;20210;-59
2022/07/08 03:46:55;;;;;;;;;;;21.30;44.90;;;;;;5161151;27;19929;-56
2022/07/08 03:49:21;;;;;;;;;;;21.80;43.10;;;;;;5161134;27;19966;-54
2022/07/08 03:51:47;;;;;;;;;;;21.60;43.30;;;;;;5148074;27;19923;-56
2022/07/08 03:54:13;;;;;;;;;;;21.70;43.20;;;;;;5161165;27;20327;-57
2022/07/08 03:56:38;;;;;;;;;;;21.80;42.80;;;;;;5163362;27;19923;-59
2022/07/08 03:59:04;;;;;;;;;;;21.80;42.70;;;;;;5144332;27;19923;-57
2022/07/08 04:01:30;;;;;;;;;;;21.90;42.40;;;;;;5141728;27;20423;-56
2022/07/08 04:03:56;;;;;;;;;;;21.80;42.70;;;;;;5148998;27;20389;-58
2022/07/08 04:06:22;;;;;;;;;;;21.90;42.60;;;;;;5164740;27;19922;-57
2022/07/08 04:08:47;;;;;;;;;;;22.10;42.10;;;;;;5164751;27;20366;-58
2022/07/08 04:11:13;;;;;;;;;;;21.90;42.40;;;;;;5170290;27;20289;-54
2022/07/08 04:13:39;;;;;;;;;;;21.90;42.50;;;;;;5164638;27;19933;-57
2022/07/08 04:16:08;;;;;;;;;;;21.90;42.50;;;;;;5164317;27;19926;-56
2022/07/08 04:18:33;;;;;;;;;;;21.90;42.50;;;;;;5168358;27;20348;-57
2022/07/08 04:20:59;;;;;;;;;;;22.10;42.30;;;;;;5163787;27;19979;-56
2022/07/08 04:23:25;;;;;;;;;;;22.30;41.80;;;;;;5169684;27;19927;-55
2022/07/08 04:25:51;;;;;;;;;;;21.50;43.30;;;;;;5164235;27;19922;-55
2022/07/08 04:28:16;;;;;;;;;;;21.00;43.90;;;;;;5164242;27;19923;-58
2022/07/08 04:30:42;;;;;;;;;;;21.30;44.30;;;;;;5169932;27;19974;-56
2022/07/08 04:33:08;;;;;;;;;;;21.30;44.20;;;;;;5164458;27;19923;-57
2022/07/08 04:35:35;;;;;;;;;;;21.30;44.00;;;;;;5162597;27;20219;-57
2022/07/08 04:38:01;;;;;;;;;;;21.40;43.90;;;;;;5149974;27;19927;-57
2022/07/08 04:40:27;;;;;;;;;;;21.30;43.90;;;;;;5163998;27;19923;-57
2022/07/08 04:42:53;;;;;;;;;;;21.40;43.80;;;;;;5150911;27;19926;-58
2022/07/08 04:45:19;;;;;;;;;;;21.40;43.70;;;;;;5163925;27;19937;-58
2022/07/08 04:47:46;;;;;;;;;;;21.40;43.80;;;;;;5164015;27;19923;-57
2022/07/08 04:50:11;;;;;;;;;;;21.30;43.90;;;;;;5169351;27;19922;-59
2022/07/08 04:52:37;;;;;;;;;;;21.40;43.80;;;;;;5127749;27;20298;-59
2022/07/08 04:55:03;;;;;;;;;;;21.40;43.70;;;;;;5162418;27;20188;-58
2022/07/08 04:57:32;;;;;;;;;;;21.40;43.70;;;;;;5169055;27;19974;-59
2022/07/08 04:59:59;;;;;;;;;;;21.40;43.70;;;;;;5163626;27;19923;-59
2022/07/08 05:02:25;;;;;;;;;;;21.50;43.70;;;;;;5148459;27;20067;-58
2022/07/08 05:04:51;;;;;;;;;;;21.40;43.80;;;;;;5167140;27;19931;-59
2022/07/08 05:07:17;;;;;;;;;;;21.40;43.70;;;;;;5164022;27;20407;-57
2022/07/08 05:09:43;;;;;;;;;;;21.40;43.70;;;;;;5169357;27;19954;-60
2022/07/08 05:12:09;;;;;;;;;;;21.40;43.70;;;;;;5162458;27;19929;-56
2022/07/08 05:14:34;;;;;;;;;;;21.30;43.80;;;;;;5161816;27;19935;-59
2022/07/08 05:17:00;;;;;;;;;;;21.40;43.60;;;;;;5168946;27;19927;-58
2022/07/08 05:19:26;;;;;;;;;;;21.40;43.70;;;;;;5163650;27;19922;-58
2022/07/08 05:21:52;;;;;;;;;;;21.40;43.70;;;;;;5164223;27;20400;-53
2022/07/08 05:24:17;;;;;;;;;;;21.40;43.80;;;;;;5168657;27;19923;-58
2022/07/08 05:26:43;;;;;;;;;;;21.40;43.70;;;;;;5144943;27;19929;-59
2022/07/08 05:29:09;;;;;;;;;;;21.30;43.80;;;;;;5168799;27;20039;-57
2022/07/08 05:31:35;;;;;;;;;;;21.30;43.70;;;;;;5161626;27;19927;-58
2022/07/08 05:34:01;;;;;;;;;;;21.50;43.50;;;;;;5163033;27;20343;-59
2022/07/08 05:36:27;;;;;;;;;;;21.50;43.40;;;;;;5149946;27;19923;-59
2022/07/08 05:38:52;;;;;;;;;;;21.50;43.50;;;;;;5163581;27;19952;-58
2022/07/08 05:41:18;;;;;;;;;;;21.50;43.40;;;;;;5163579;27;20393;-58
2022/07/08 05:43:44;;;;;;;;;;;21.50;43.20;;;;;;5168933;27;20393;-59
2022/07/08 05:46:10;;;;;;;;;;;21.40;43.20;;;;;;5163279;27;19938;-59
2022/07/08 05:48:35;;;;;;;;;;;21.40;43.20;;;;;;5167426;27;19930;-59
2022/07/08 05:51:01;;;;;;;;;;;21.50;43.10;;;;;;5162162;27;19934;-59
2022/07/08 05:53:27;;;;;;;;;;;21.40;43.20;;;;;;5162953;27;19931;-59
2022/07/08 05:55:53;;;;;;;;;;;21.50;43.00;;;;;;5168564;27;19923;-59
2022/07/08 05:58:19;;;;;;;;;;;21.40;43.10;;;;;;5163255;27;19926;-59
2022/07/08 06:00:45;;;;;;;;;;;21.40;43.10;;;;;;5163132;27;20441;-59
2022/07/08 06:03:10;;;;;;;;;;;21.50;43.10;;;;;;5168457;27;19926;-59
2022/07/08 06:05:36;;;;;;;;;;;21.40;43.10;;;;;;5162855;27;20393;-59
2022/07/08 06:08:02;;;;;;;;;;;21.40;43.10;;;;;;5166455;27;19934;-58
2022/07/08 06:10:28;;;;;;;;;;;21.50;43.10;;;;;;5162323;27;19930;-59
2022/07/08 06:12:53;;;;;;;;;;;21.50;43.00;;;;;;5162813;27;20022;-57
2022/07/08 06:15:20;;;;;;;;;;;21.40;42.90;;;;;;5149880;27;19926;-58
2022/07/08 06:17:46;;;;;;;;;;;21.40;43.10;;;;;;5162941;27;20377;-57
2022/07/08 06:20:14;;;;;;;;;;;21.40;43.00;;;;;;5163081;27;19987;-60
2022/07/08 06:22:43;;;;;;;;;;;21.50;43.10;;;;;;5168081;27;20323;-57
2022/07/08 06:25:08;;;;;;;;;;;21.40;42.90;;;;;;5161855;27;19922;-59
2022/07/08 06:27:35;;;;;;;;;;;20.80;43.10;;;;;;5164299;27;20389;-58
2022/07/08 06:30:01;;;;;;;;;;;21.20;43.90;;;;;;5165331;27;19926;-57
2022/07/08 06:32:27;;;;;;;;;;;21.80;42.10;;;;;;5162429;27;20468;-57
2022/07/08 06:34:53;;;;;;;;;;;22.00;41.40;;;;;;5167841;27;19923;-58
2022/07/08 06:37:19;;;;;;;;;;;21.90;41.00;;;;;;5162263;27;19929;-59
2022/07/08 06:39:45;;;;;;;;;;;21.90;40.70;;;;;;5162056;27;19974;-58
2022/07/08 06:42:10;;;;;;;;;;;22.00;40.50;;;;;;5167638;27;20373;-57
2022/07/08 06:44:36;;;;;;;;;;;22.00;40.30;;;;;;5141661;27;20013;-57
2022/07/08 06:47:02;;;;;;;;;;;22.00;40.20;;;;;;5161912;27;20267;-56
2022/07/08 06:49:28;;;;;;;;;;;22.10;40.10;;;;;;5167323;27;19926;-56
2022/07/08 06:51:54;;;;;;;;;;;22.20;39.60;;;;;;5162089;27;19973;-56
2022/07/08 06:54:35;;;;;;;;;;;22.30;39.20;;;;;;5167542;27;19926;-58
2022/07/08 06:57:01;;;;;;;;;;;22.20;39.40;;;;;;5162695;27;19931;-57
2022/07/08 06:59:28;;;;;;;;;;;22.30;39.10;;;;;;5161866;27;20441;-55
2022/07/08 07:01:54;;;;;;;;;;;21.30;41.30;;;;;;5166617;27;20289;-57
2022/07/08 07:04:20;;;;;;;;;;;21.20;41.50;;;;;;5160823;27;20219;-57
2022/07/08 07:06:46;;;;;;;;;;;21.50;40.80;;;;;;5161776;27;19922;-58
2022/07/08 07:09:12;;;;;;;;;;;21.60;40.60;;;;;;5167052;27;20372;-56
2022/07/08 07:11:39;;;;;;;;;;;21.60;40.40;;;;;;5161717;27;19927;-59
2022/07/08 07:14:05;;;;;;;;;;;21.50;40.40;;;;;;5163373;27;19970;-57
2022/07/08 07:16:31;;;;;;;;;;;21.50;40.30;;;;;;5166159;27;19932;-57
2022/07/08 07:18:57;;;;;;;;;;;21.50;40.30;;;;;;5161748;27;20330;-58
2022/07/08 07:21:23;;;;;;;;;;;21.50;40.30;;;;;;5165090;27;19926;-58
2022/07/08 07:23:48;;;;;;;;;;;21.50;40.10;;;;;;5160998;27;19956;-57
2022/07/08 07:26:14;;;;;;;;;;;21.60;40.10;;;;;;5161557;27;19930;-58
2022/07/08 07:28:40;;;;;;;;;;;21.60;39.90;;;;;;5167192;27;19926;-60
2022/07/08 07:31:06;;;;;;;;;;;21.60;39.80;;;;;;5161236;27;19927;-60
2022/07/08 07:33:32;;;;;;;;;;;21.50;40.00;;;;;;5161574;27;19981;-60
2022/07/08 07:35:58;;;;;;;;;;;21.60;39.90;;;;;;5144804;27;19927;-59
2022/07/08 07:38:23;;;;;;;;;;;21.60;39.90;;;;;;5162305;27;21187;-60
2022/07/08 07:40:49;;;;;;;;;;;21.60;39.80;;;;;;5169039;27;19970;-59
2022/07/08 07:43:15;;;;;;;;;;;21.60;39.70;;;;;;5164697;27;19922;-58
2022/07/08 07:45:41;;;;;;;;;;;21.50;39.70;;;;;;5164893;27;20373;-58
2022/07/08 07:48:06;;;;;;;;;;;21.50;39.60;;;;;;5170341;27;20318;-59
2022/07/08 07:50:32;;;;;;;;;;;21.60;39.50;;;;;;5146233;27;20033;-59
2022/07/08 07:52:58;;;;;;;;;;;21.60;39.50;;;;;;5165093;27;19935;-58
2022/07/08 07:55:24;;;;;;;;;;;21.60;39.40;;;;;;5170439;27;20305;-60
2022/07/08 07:57:50;;;;;;;;;;;21.60;39.50;;;;;;5163102;27;20322;-58
2022/07/08 08:00:16;;;;;;;;;;;21.70;39.30;;;;;;5149125;27;19923;-54
2022/07/08 08:02:41;;;;;;;;;;;21.70;39.40;;;;;;5164406;27;20229;-60
2022/07/08 08:05:08;;;;;;;;;;;21.60;39.40;;;;;;5164519;27;20040;-57
2022/07/08 08:07:34;;;;;;;;;;;21.60;39.40;;;;;;5170270;27;19933;-59
2022/07/08 08:10:01;;;;;;;;;;;21.70;39.20;;;;;;5164844;27;19973;-59
2022/07/08 08:12:27;;;;;;;;;;;21.60;39.40;;;;;;5164616;27;20174;-59
2022/07/08 08:14:53;;;;;;;;;;;21.60;39.40;;;;;;5151037;27;19975;-59
2022/07/08 08:17:19;;;;;;;;;;;21.60;39.20;;;;;;5163106;27;20348;-59
2022/07/08 08:19:44;;;;;;;;;;;21.70;39.10;;;;;;5169339;27;19923;-57
2022/07/08 08:22:10;;;;;;;;;;;21.70;38.90;;;;;;5164948;27;19932;-60
2022/07/08 08:24:36;;;;;;;;;;;21.70;38.80;;;;;;5164512;27;19972;-60
2022/07/08 08:27:02;;;;;;;;;;;21.80;38.70;;;;;;5149331;27;20293;-60
2022/07/08 08:29:28;;;;;;;;;;;21.70;38.70;;;;;;5164484;27;19923;-59
2022/07/08 08:31:54;;;;;;;;;;;21.70;38.60;;;;;;5164307;27;20051;-59
2022/07/08 08:34:20;;;;;;;;;;;21.60;38.70;;;;;;5168326;27;19922;-59
2022/07/08 08:36:46;;;;;;;;;;;21.70;38.60;;;;;;5163528;27;19933;-59
2022/07/08 08:39:11;;;;;;;;;;;21.70;38.50;;;;;;5166701;27;20359;-54
2022/07/08 08:41:37;;;;;;;;;;;21.80;38.40;;;;;;5167162;27;20010;-60
2022/07/08 08:44:03;;;;;;;;;;;21.70;38.60;;;;;;5145623;27;20275;-58
2022/07/08 08:46:29;;;;;;;;;;;21.70;38.60;;;;;;5169711;27;20297;-60
2022/07/08 08:48:56;;;;;;;;;;;21.80;38.60;;;;;;5163150;27;19930;-59
2022/07/08 08:51:22;;;;;;;;;;;21.70;38.60;;;;;;5143317;27;20301;-60
2022/07/08 08:53:47;;;;;;;;;;;21.80;38.60;;;;;;5163275;27;19927;-57
2022/07/08 08:56:14;;;;;;;;;;;21.80;38.60;;;;;;5163366;27;19953;-59
2022/07/08 08:58:46;;;;;;;;;;;21.80;38.50;;;;;;5163865;27;20010;-56
2022/07/08 09:01:12;;;;;;;;;;;21.30;39.10;;;;;;5169167;27;19929;-58
2022/07/08 09:03:38;;;;;;;;;;;20.90;39.40;;;;;;5163974;27;19923;-58
2022/07/08 09:06:04;;;;;;;;;;;21.30;39.50;;;;;;5169673;27;19985;-56
2022/07/08 09:08:31;;;;;;;;;;;22.00;37.90;;;;;;5163584;27;19927;-57
2022/07/08 09:10:56;;;;;;;;;;;22.20;37.30;;;;;;5162351;27;20370;-57
2022/07/08 09:13:25;;;;;;;;;;;22.30;37.00;;;;;;5167943;27;19929;-57
2022/07/08 09:15:54;;;;;;;;;;;22.50;36.60;;;;;;5163423;27;19990;-57
2022/07/08 09:18:21;;;;;;;;;;;22.50;36.50;;;;;;5163566;27;20231;-59
2022/07/08 09:20:47;;;;;;;;;;;21.50;38.60;;;;;;5168858;27;20014;-58
2022/07/08 09:23:13;;;;;;;;;;;21.30;39.00;;;;;;5144960;27;19978;-55
2022/07/08 09:25:39;;;;;;;;;;;21.60;38.50;;;;;;5166009;27;19978;-58
2022/07/08 09:28:05;;;;;;;;;;;21.60;38.50;;;;;;5166527;27;19975;-55
2022/07/08 09:30:31;;;;;;;;;;;21.70;38.40;;;;;;5161503;27;20149;-57
2022/07/08 09:32:58;;;;;;;;;;;21.80;38.30;;;;;;5168419;27;19923;-57
2022/07/08 09:35:53;;;;;;;;;;;21.80;38.20;;;;;;5163114;27;19923;-60
2022/07/08 09:38:19;;;;;;;;;;;21.80;38.20;;;;;;5160273;27;19929;-59
2022/07/08 09:40:55;;;;;;;;;;;21.80;38.10;;;;;;5168602;27;19923;-56
2022/07/08 09:43:21;;;;;;;;;;;21.80;38.10;;;;;;5144416;27;20056;-59
2022/07/08 09:45:47;;;;;;;;;;;21.80;38.30;;;;;;5163255;27;20054;-59
2022/07/08 09:48:13;;;;;;;;;;;21.80;38.20;;;;;;5166907;27;20323;-57
2022/07/08 09:50:39;;;;;;;;;;;21.80;38.20;;;;;;5162534;27;19945;-59
2022/07/08 09:53:16;;;;;;;;;;;21.90;37.90;;;;;;5162709;27;19923;-57
2022/07/08 09:55:47;;;;;;;;;;;21.80;38.00;;;;;;5168311;27;19966;-58
2022/07/08 09:58:13;;;;;;;;;;;21.80;38.10;;;;;;5162987;27;20275;-56
2022/07/08 10:00:39;;;;;;;;;;;21.90;38.00;;;;;;5162682;27;19970;-58
2022/07/08 10:03:05;;;;;;;;;;;21.90;38.00;;;;;;5168471;27;20298;-59
2022/07/08 10:05:31;;;;;;;;;;;21.90;38.20;;;;;;5161846;27;19922;-58
2022/07/08 10:07:57;;;;;;;;;;;21.80;38.40;;;;;;5166766;27;19927;-58
2022/07/08 10:10:23;;;;;;;;;;;21.90;38.20;;;;;;5162459;27;19934;-58
2022/07/08 10:12:49;;;;;;;;;;;21.90;38.00;;;;;;5144601;27;19927;-58
2022/07/08 10:15:15;;;;;;;;;;;21.90;37.90;;;;;;5168286;27;20339;-58
2022/07/08 10:17:42;;;;;;;;;;;21.90;38.00;;;;;;5163084;27;19930;-59
2022/07/08 10:20:08;;;;;;;;;;;21.80;38.30;;;;;;5162729;27;19922;-59
2022/07/08 10:22:33;;;;;;;;;;;20.20;41.30;;;;;;5149582;27;20365;-59
2022/07/08 10:25:02;;;;;;;;;;;20.40;41.00;;;;;;5160947;27;19923;-58
2022/07/08 10:27:28;;;;;;;;;;;21.30;39.40;;;;;;5167311;27;20058;-58
2022/07/08 10:30:11;;;;;;;;;;;21.50;38.80;;;;;;5162692;27;20251;-58
2022/07/08 10:32:37;;;;;;;;;;;21.60;38.50;;;;;;5162687;27;20387;-57
2022/07/08 10:35:07;;;;;;;;;;;21.80;38.40;;;;;;5167613;27;19923;-58
2022/07/08 10:37:56;;;;;;;;;;;21.70;38.60;;;;;;5162550;27;19930;-59
2022/07/08 10:40:40;;;;;;;;;;;21.80;38.60;;;;;;5162363;27;19929;-58
2022/07/08 10:43:19;;;;;;;;;;;21.80;38.70;;;;;;5161405;27;22334;-57
2022/07/08 10:46:00;;;;;;;;;;;21.80;38.50;;;;;;5167016;27;19937;-58
2022/07/08 10:48:27;;;;;;;;;;;21.80;38.30;;;;;;5162015;27;20322;-58
2022/07/08 10:50:53;;;;;;;;;;;21.80;38.40;;;;;;5163114;27;20284;-58
2022/07/08 10:53:19;;;;;;;;;;;21.90;38.30;;;;;;5167279;27;19926;-56
2022/07/08 10:55:46;;;;;;;;;;;21.80;38.40;;;;;;5158198;27;19923;-59
2022/07/08 10:58:12;;;;;;;;;;;21.80;38.40;;;;;;5167628;27;20352;-59
2022/07/08 11:00:39;;;;;;;;;;;21.80;38.30;;;;;;5161222;27;20017;-58
2022/07/08 11:03:08;;;;;;;;;;;21.80;38.40;;;;;;5160655;27;19937;-59
2022/07/08 11:05:40;;;;;;;;;;;21.90;38.10;;;;;;5166725;27;19926;-57
2022/07/08 11:08:21;;;;;;;;;;;21.90;38.10;;;;;;5143140;27;19922;-59
2022/07/08 11:10:47;;;;;;;;;;;21.90;38.00;;;;;;5161946;27;19941;-57
2022/07/08 11:13:13;;;;;;;;;;;21.90;37.90;;;;;;5166371;27;20350;-59
2022/07/08 11:15:38;;;;;;;;;;;21.90;37.90;;;;;;5142180;27;19952;-58
2022/07/08 11:18:04;;;;;;;;;;;22.00;37.80;;;;;;5161838;27;19930;-58
2022/07/08 11:20:30;;;;;;;;;;;21.40;38.50;;;;;;5165164;27;19933;-56
2022/07/08 11:22:56;;;;;;;;;;;21.60;37.60;;;;;;5161217;27;20023;-59
2022/07/08 11:25:22;;;;;;;;;;;21.40;38.20;;;;;;5166945;27;19927;-59
2022/07/08 11:27:48;;;;;;;;;;;21.70;38.40;;;;;;5143311;27;19927;-60
2022/07/08 11:30:14;;;;;;;;;;;21.80;38.30;;;;;;5161515;27;19923;-59
2022/07/08 11:32:40;;;;;;;;;;;21.80;38.30;;;;;;5167224;27;19923;-58
2022/07/08 11:35:06;;;;;;;;;;;21.80;38.30;;;;;;5161693;27;19963;-57
2022/07/08 11:37:32;;;;;;;;;;;21.80;38.10;;;;;;5142045;27;20635;-58
2022/07/08 11:39:58;;;;;;;;;;;21.90;38.00;;;;;;5165959;27;19970;-59
2022/07/08 11:42:24;;;;;;;;;;;22.00;37.80;;;;;;5161317;27;20009;-58
2022/07/08 11:44:50;;;;;;;;;;;22.00;37.80;;;;;;5166954;27;19923;-58
2022/07/08 11:47:19;;;;;;;;;;;21.40;38.80;;;;;;5143865;27;20486;-58
2022/07/08 11:49:45;;;;;;;;;;;20.10;41.50;;;;;;5161612;27;19926;-60
2022/07/08 11:52:13;;;;;;;;;;;20.70;40.50;;;;;;5166755;27;19937;-59
2022/07/08 11:54:39;;;;;;;;;;;21.30;39.10;;;;;;5161416;27;19930;-58
2022/07/08 11:57:05;;;;;;;;;;;21.60;38.70;;;;;;5159782;27;20351;-59
2022/07/08 11:59:31;;;;;;;;;;;21.80;38.50;;;;;;5166014;27;20013;-57
2022/07/08 12:01:58;;;;;;;;;;;21.80;38.40;;;;;;5142380;27;19970;-59
2022/07/08 12:04:23;;;;;;;;;;;21.90;38.30;;;;;;5162908;27;19937;-56
2022/07/08 12:06:50;;;;;;;;;;;21.90;38.40;;;;;;5165486;27;19946;-58
2022/07/08 12:09:16;;;;;;;;;;;21.90;38.50;;;;;;5161423;27;19957;-57
2022/07/08 12:11:43;;;;;;;;;;;21.90;38.20;;;;;;5166231;27;19931;-58
2022/07/08 12:14:09;;;;;;;;;;;22.00;38.10;;;;;;5161242;27;19926;-54
2022/07/08 12:16:44;;;;;;;;;;;21.30;38.80;;;;;;5142709;27;19923;-59
2022/07/08 12:19:25;;;;;;;;;;;19.90;41.70;;;;;;5167025;27;19929;-57
2022/07/08 12:21:51;;;;;;;;;;;20.10;41.70;;;;;;5161774;27;19929;-54
2022/07/08 12:24:22;;;;;;;;;;;21.10;39.70;;;;;;5163555;27;19923;-57
2022/07/08 12:26:54;;;;;;;;;;;21.60;38.90;;;;;;5151822;27;19929;-53
2022/07/08 12:29:20;;;;;;;;;;;21.70;38.80;;;;;;5165160;27;19938;-55
2022/07/08 12:31:46;;;;;;;;;;;21.80;38.60;;;;;;5145534;27;20041;-54
2022/07/08 12:34:14;;;;;;;;;;;21.80;38.60;;;;;;5168372;27;19975;-56
2022/07/08 12:36:40;;;;;;;;;;;21.80;38.60;;;;;;5164614;27;19922;-55
2022/07/08 12:39:10;;;;;;;;;;;21.80;38.60;;;;;;5169080;27;19926;-52
2022/07/08 12:41:35;;;;;;;;;;;21.90;38.50;;;;;;5166929;27;19974;-54
2022/07/08 12:44:20;;;;;;;;;;;22.00;38.40;;;;;;5164785;27;20358;-57
2022/07/08 12:46:46;;;;;;;;;;;22.00;38.50;;;;;;5169838;27;19967;-55
2022/07/08 12:49:20;;;;;;;;;;;22.00;38.40;;;;;;5164867;27;19926;-56
2022/07/08 12:51:46;;;;;;;;;;;22.10;38.30;;;;;;5163323;27;19929;-55
2022/07/08 12:54:12;;;;;;;;;;;22.00;38.20;;;;;;5168936;27;19926;-55
2022/07/08 12:56:38;;;;;;;;;;;22.10;38.00;;;;;;5164323;27;19951;-56
2022/07/08 12:59:03;;;;;;;;;;;22.00;37.90;;;;;;5165637;27;19934;-58
2022/07/08 13:01:29;;;;;;;;;;;20.40;40.90;;;;;;5169988;27;19926;-48
2022/07/08 13:03:55;;;;;;;;;;;20.20;41.30;;;;;;5167135;27;20334;-49
2022/07/08 13:06:22;;;;;;;;;;;20.90;39.90;;;;;;5167791;27;19930;-52
2022/07/08 13:08:47;;;;;;;;;;;21.50;38.50;;;;;;5169699;27;19922;-49
2022/07/08 13:11:13;;;;;;;;;;;21.80;38.10;;;;;;5147559;27;20476;-49
2022/07/08 13:13:39;;;;;;;;;;;21.80;38.00;;;;;;5151495;27;19923;-52
2022/07/08 13:16:05;;;;;;;;;;;21.90;38.00;;;;;;5148100;27;19974;-49
2022/07/08 13:18:31;;;;;;;;;;;21.90;38.00;;;;;;5167418;27;20009;-49
2022/07/08 13:20:56;;;;;;;;;;;21.90;38.10;;;;;;5170147;27;20274;-50
2022/07/08 13:23:22;;;;;;;;;;;22.00;38.10;;;;;;5164853;27;19923;-54
2022/07/08 13:25:51;;;;;;;;;;;20.50;41.10;;;;;;5164867;27;19931;-55
2022/07/08 13:28:17;;;;;;;;;;;21.00;39.60;;;;;;5168041;27;19923;-58
2022/07/08 13:30:43;;;;;;;;;;;21.20;38.90;;;;;;5163723;27;19996;-57
2022/07/08 13:33:08;;;;;;;;;;;21.40;39.90;;;;;;5150340;27;19930;-57
2022/07/08 13:35:34;;;;;;;;;;;21.80;39.40;;;;;;5163862;27;19960;-56
2022/07/08 13:38:00;;;;;;;;;;;21.90;39.10;;;;;;5165566;27;19930;-56
2022/07/08 13:40:26;;;;;;;;;;;22.00;38.90;;;;;;5169493;27;19982;-54
2022/07/08 13:42:51;;;;;;;;;;;22.00;38.80;;;;;;5165313;27;20063;-56
2022/07/08 13:45:17;;;;;;;;;;;22.00;38.80;;;;;;5144639;27;20407;-56
2022/07/08 13:47:43;;;;;;;;;;;22.10;38.60;;;;;;5167835;27;19922;-47
2022/07/08 13:50:09;;;;;;;;;;;22.10;38.40;;;;;;5162807;27;19923;-45
2022/07/08 13:52:35;;;;;;;;;;;20.90;40.40;;;;;;5168406;27;20078;-46
2022/07/08 13:55:01;;;;;;;;;;;20.00;42.40;;;;;;5145428;27;20009;-45
2022/07/08 13:57:27;;;;;;;;;;;20.30;42.40;;;;;;5146967;27;19931;-44
2022/07/08 13:59:53;;;;;;;;;;;21.60;39.60;;;;;;5168458;27;19926;-44
2022/07/08 14:02:19;;;;;;;;;;;21.60;39.70;;;;;;5163492;27;20396;-47
2022/07/08 14:04:45;;;;;;;;;;;21.00;41.30;;;;;;5163395;27;19922;-50
2022/07/08 14:07:10;;;;;;;;;;;20.50;42.10;;;;;;5168140;27;19922;-46
2022/07/08 14:09:36;;;;;;;;;;;20.30;42.40;;;;;;5164864;27;19949;-50
2022/07/08 14:12:04;;;;;;;;;;;20.40;42.20;;;;;;5167779;27;20009;-55
2022/07/08 14:14:31;;;;;;;;;;;20.30;42.40;;;;;;5166608;27;19927;-45